sensor_id;sensor_type;location;lat;lon;timestamp;P1;durP1;ratioP1;P2;durP2;ratioP2
28007;SDS011;15333;50.010;20.020;2024-01-15T00:02:58;11.30;;;6.25;;
28007;SDS011;15333;50.010;20.020;2024-01-15T00:05:59;11.90;;;6.63;;
28007;SDS011;15333;50.010;20.020;2024-01-15T00:09:01;11.30;;;7.00;;
28007;SDS011;15333;50.010;20.020;2024-01-15T00:12:02;11.80;;;6.22;;
28007;SDS011;15333;50.010;20.020;2024-01-15T00:15:04;12.77;;;7.50;;
28007;SDS011;15333;50.010;20.020;2024-01-15T00:18:05;9.90;;;6.10;;
28007;SDS011;15333;50.010;20.020;2024-01-15T00:21:06;10.13;;;6.13;;
28007;SDS011;15333;50.010;20.020;2024-01-15T00:24:07;10.73;;;6.07;;
28007;SDS011;15333;50.010;20.020;2024-01-15T00:27:08;11.48;;;6.57;;
28007;SDS011;15333;50.010;20.020;2024-01-15T00:30:08;11.80;;;6.75;;
28007;SDS011;15333;50.010;20.020;2024-01-15T00:33:10;12.82;;;6.68;;
28007;SDS011;15333;50.010;20.020;2024-01-15T00:36:12;11.35;;;6.68;;
28007;SDS011;15333;50.010;20.020;2024-01-15T00:39:15;12.57;;;6.32;;
28007;SDS011;15333;50.010;20.020;2024-01-15T01:30:31;9.10;;;4.88;;
28007;SDS011;15333;50.010;20.020;2024-01-15T01:33:32;7.35;;;4.28;;
28007;SDS011;15333;50.010;20.020;2024-01-15T01:36:33;9.52;;;5.10;;
28007;SDS011;15333;50.010;20.020;2024-01-15T01:39:33;8.35;;;5.45;;
28007;SDS011;15333;50.010;20.020;2024-01-15T01:42:34;9.73;;;5.25;;
28007;SDS011;15333;50.010;20.020;2024-01-15T01:45:35;9.80;;;5.90;;
28007;SDS011;15333;50.010;20.020;2024-01-15T01:48:36;7.88;;;4.78;;
28007;SDS011;15333;50.010;20.020;2024-01-15T01:51:37;9.50;;;5.35;;
28007;SDS011;15333;50.010;20.020;2024-01-15T01:54:40;8.32;;;4.78;;
28007;SDS011;15333;50.010;20.020;2024-01-15T01:57:41;9.90;;;4.68;;
28007;SDS011;15333;50.010;20.020;2024-01-15T02:00:43;9.88;;;4.97;;
28007;SDS011;15333;50.010;20.020;2024-01-15T02:03:44;7.97;;;4.63;;
28007;SDS011;15333;50.010;20.020;2024-01-15T02:06:45;8.48;;;4.32;;
28007;SDS011;15333;50.010;20.020;2024-01-15T02:09:46;9.57;;;4.57;;
28007;SDS011;15333;50.010;20.020;2024-01-15T02:12:47;7.82;;;5.15;;
28007;SDS011;15333;50.010;20.020;2024-01-15T02:15:48;7.63;;;4.32;;
28007;SDS011;15333;50.010;20.020;2024-01-15T02:18:49;8.68;;;4.63;;
28007;SDS011;15333;50.010;20.020;2024-01-15T02:21:50;7.72;;;4.38;;
28007;SDS011;15333;50.010;20.020;2024-01-15T02:24:51;8.18;;;4.20;;
28007;SDS011;15333;50.010;20.020;2024-01-15T02:27:52;6.35;;;4.03;;
28007;SDS011;15333;50.010;20.020;2024-01-15T02:30:53;6.78;;;4.07;;
28007;SDS011;15333;50.010;20.020;2024-01-15T02:33:53;7.45;;;4.38;;
28007;SDS011;15333;50.010;20.020;2024-01-15T02:36:54;7.13;;;4.22;;
28007;SDS011;15333;50.010;20.020;2024-01-15T02:39:55;7.80;;;4.22;;
28007;SDS011;15333;50.010;20.020;2024-01-15T02:42:56;6.97;;;4.22;;
28007;SDS011;15333;50.010;20.020;2024-01-15T02:45:57;7.18;;;4.18;;
28007;SDS011;15333;50.010;20.020;2024-01-15T02:48:58;7.30;;;3.92;;
28007;SDS011;15333;50.010;20.020;2024-01-15T02:51:58;7.00;;;3.97;;
28007;SDS011;15333;50.010;20.020;2024-01-15T02:54:59;7.25;;;3.60;;
28007;SDS011;15333;50.010;20.020;2024-01-15T02:58:00;5.82;;;3.22;;
28007;SDS011;15333;50.010;20.020;2024-01-15T03:01:01;5.07;;;3.42;;
28007;SDS011;15333;50.010;20.020;2024-01-15T03:04:02;5.43;;;3.50;;
28007;SDS011;15333;50.010;20.020;2024-01-15T03:07:03;6.63;;;3.63;;
28007;SDS011;15333;50.010;20.020;2024-01-15T03:10:04;5.53;;;3.33;;
28007;SDS011;15333;50.010;20.020;2024-01-15T03:13:06;7.13;;;3.55;;
28007;SDS011;15333;50.010;20.020;2024-01-15T03:16:07;5.65;;;3.30;;
28007;SDS011;15333;50.010;20.020;2024-01-15T03:19:08;7.38;;;3.60;;
28007;SDS011;15333;50.010;20.020;2024-01-15T03:22:08;7.70;;;3.78;;
28007;SDS011;15333;50.010;20.020;2024-01-15T03:25:09;5.97;;;3.25;;
28007;SDS011;15333;50.010;20.020;2024-01-15T03:28:10;5.68;;;3.13;;
28007;SDS011;15333;50.010;20.020;2024-01-15T03:31:11;5.35;;;3.50;;
28007;SDS011;15333;50.010;20.020;2024-01-15T03:34:12;5.60;;;3.25;;
28007;SDS011;15333;50.010;20.020;2024-01-15T03:37:13;7.35;;;3.70;;
28007;SDS011;15333;50.010;20.020;2024-01-15T03:40:14;7.03;;;4.05;;
28007;SDS011;15333;50.010;20.020;2024-01-15T03:43:15;6.40;;;3.55;;
28007;SDS011;15333;50.010;20.020;2024-01-15T03:46:15;5.72;;;3.25;;
28007;SDS011;15333;50.010;20.020;2024-01-15T03:49:16;7.38;;;3.97;;
28007;SDS011;15333;50.010;20.020;2024-01-15T03:52:17;5.97;;;3.90;;
28007;SDS011;15333;50.010;20.020;2024-01-15T03:55:18;6.57;;;3.92;;
28007;SDS011;15333;50.010;20.020;2024-01-15T03:58:18;5.97;;;3.70;;
28007;SDS011;15333;50.010;20.020;2024-01-15T04:01:19;7.85;;;3.20;;
28007;SDS011;15333;50.010;20.020;2024-01-15T04:04:20;7.20;;;3.88;;
28007;SDS011;15333;50.010;20.020;2024-01-15T04:07:21;6.95;;;3.83;;
28007;SDS011;15333;50.010;20.020;2024-01-15T04:10:22;5.80;;;3.28;;
28007;SDS011;15333;50.010;20.020;2024-01-15T04:13:23;5.15;;;3.05;;
28007;SDS011;15333;50.010;20.020;2024-01-15T04:16:23;6.82;;;3.60;;
28007;SDS011;15333;50.010;20.020;2024-01-15T04:19:24;5.70;;;3.15;;
28007;SDS011;15333;50.010;20.020;2024-01-15T04:22:26;7.22;;;3.33;;
28007;SDS011;15333;50.010;20.020;2024-01-15T04:25:27;6.10;;;3.10;;
28007;SDS011;15333;50.010;20.020;2024-01-15T04:28:28;4.50;;;3.03;;
28007;SDS011;15333;50.010;20.020;2024-01-15T04:31:29;5.15;;;3.10;;
28007;SDS011;15333;50.010;20.020;2024-01-15T04:34:29;6.18;;;3.05;;
28007;SDS011;15333;50.010;20.020;2024-01-15T04:37:30;5.80;;;3.38;;
28007;SDS011;15333;50.010;20.020;2024-01-15T04:40:31;4.55;;;2.67;;
28007;SDS011;15333;50.010;20.020;2024-01-15T04:43:32;5.88;;;3.35;;
28007;SDS011;15333;50.010;20.020;2024-01-15T04:46:32;5.47;;;2.80;;
28007;SDS011;15333;50.010;20.020;2024-01-15T04:49:33;6.68;;;3.58;;
28007;SDS011;15333;50.010;20.020;2024-01-15T04:52:34;6.10;;;3.00;;
28007;SDS011;15333;50.010;20.020;2024-01-15T04:55:35;6.45;;;3.60;;
28007;SDS011;15333;50.010;20.020;2024-01-15T04:58:36;6.88;;;3.20;;
28007;SDS011;15333;50.010;20.020;2024-01-15T05:01:37;6.10;;;3.47;;
28007;SDS011;15333;50.010;20.020;2024-01-15T05:04:37;6.40;;;2.78;;
28007;SDS011;15333;50.010;20.020;2024-01-15T05:07:38;7.10;;;3.15;;
28007;SDS011;15333;50.010;20.020;2024-01-15T05:10:39;5.70;;;2.78;;
28007;SDS011;15333;50.010;20.020;2024-01-15T05:13:40;5.13;;;2.97;;
28007;SDS011;15333;50.010;20.020;2024-01-15T05:16:48;7.20;;;3.58;;
28007;SDS011;15333;50.010;20.020;2024-01-15T05:19:50;6.10;;;3.22;;
28007;SDS011;15333;50.010;20.020;2024-01-15T05:22:50;5.97;;;2.70;;
28007;SDS011;15333;50.010;20.020;2024-01-15T05:25:51;6.85;;;3.72;;
28007;SDS011;15333;50.010;20.020;2024-01-15T05:28:52;7.32;;;3.72;;
28007;SDS011;15333;50.010;20.020;2024-01-15T05:31:53;5.95;;;3.25;;
28007;SDS011;15333;50.010;20.020;2024-01-15T05:34:54;5.00;;;3.13;;
28007;SDS011;15333;50.010;20.020;2024-01-15T05:37:55;6.72;;;3.55;;
28007;SDS011;15333;50.010;20.020;2024-01-15T05:40:55;6.63;;;4.22;;
28007;SDS011;15333;50.010;20.020;2024-01-15T05:43:56;5.90;;;3.45;;
28007;SDS011;15333;50.010;20.020;2024-01-15T05:46:57;5.82;;;3.38;;
28007;SDS011;15333;50.010;20.020;2024-01-15T05:49:58;7.50;;;4.28;;
28007;SDS011;15333;50.010;20.020;2024-01-15T05:52:59;6.00;;;3.25;;
28007;SDS011;15333;50.010;20.020;2024-01-15T05:56:00;7.25;;;3.70;;
28007;SDS011;15333;50.010;20.020;2024-01-15T08:35:40;15.25;;;8.45;;
28007;SDS011;15333;50.010;20.020;2024-01-15T08:38:42;15.00;;;8.45;;
28007;SDS011;15333;50.010;20.020;2024-01-15T08:41:42;16.88;;;9.90;;
28007;SDS011;15333;50.010;20.020;2024-01-15T08:44:43;17.63;;;9.90;;
28007;SDS011;15333;50.010;20.020;2024-01-15T08:47:44;17.42;;;9.80;;
28007;SDS011;15333;50.010;20.020;2024-01-15T08:50:45;19.25;;;10.75;;
28007;SDS011;15333;50.010;20.020;2024-01-15T08:53:48;19.95;;;10.05;;
28007;SDS011;15333;50.010;20.020;2024-01-15T08:56:49;18.10;;;10.15;;
28007;SDS011;15333;50.010;20.020;2024-01-15T08:59:50;18.50;;;9.55;;
28007;SDS011;15333;50.010;20.020;2024-01-15T09:02:51;15.40;;;9.48;;
28007;SDS011;15333;50.010;20.020;2024-01-15T09:05:52;16.83;;;9.13;;
28007;SDS011;15333;50.010;20.020;2024-01-15T09:08:53;17.25;;;9.77;;
28007;SDS011;15333;50.010;20.020;2024-01-15T09:11:54;17.63;;;9.40;;
28007;SDS011;15333;50.010;20.020;2024-01-15T09:14:55;17.17;;;9.40;;
28007;SDS011;15333;50.010;20.020;2024-01-15T09:17:56;17.23;;;9.75;;
28007;SDS011;15333;50.010;20.020;2024-01-15T09:20:59;19.80;;;10.25;;
28007;SDS011;15333;50.010;20.020;2024-01-15T09:24:00;15.75;;;9.07;;
28007;SDS011;15333;50.010;20.020;2024-01-15T09:27:01;13.30;;;7.82;;
28007;SDS011;15333;50.010;20.020;2024-01-15T09:30:05;16.88;;;9.10;;
28007;SDS011;15333;50.010;20.020;2024-01-15T09:33:07;17.60;;;9.18;;
28007;SDS011;15333;50.010;20.020;2024-01-15T09:36:08;17.50;;;8.95;;
28007;SDS011;15333;50.010;20.020;2024-01-15T09:39:09;14.90;;;8.95;;
28007;SDS011;15333;50.010;20.020;2024-01-15T09:42:11;13.95;;;7.50;;
28007;SDS011;15333;50.010;20.020;2024-01-15T09:45:13;19.40;;;9.75;;
28007;SDS011;15333;50.010;20.020;2024-01-15T09:48:14;16.55;;;8.27;;
28007;SDS011;15333;50.010;20.020;2024-01-15T09:51:14;16.85;;;7.72;;
28007;SDS011;15333;50.010;20.020;2024-01-15T09:54:16;16.40;;;9.65;;
28007;SDS011;15333;50.010;20.020;2024-01-15T09:57:17;17.45;;;8.60;;
28007;SDS011;15333;50.010;20.020;2024-01-15T10:00:18;19.40;;;9.30;;
28007;SDS011;15333;50.010;20.020;2024-01-15T10:03:21;17.50;;;9.77;;
28007;SDS011;15333;50.010;20.020;2024-01-15T10:06:22;19.23;;;9.77;;
28007;SDS011;15333;50.010;20.020;2024-01-15T10:09:23;17.52;;;8.98;;
28007;SDS011;15333;50.010;20.020;2024-01-15T10:12:24;19.75;;;10.65;;
28007;SDS011;15333;50.010;20.020;2024-01-15T10:15:27;19.90;;;10.23;;
28007;SDS011;15333;50.010;20.020;2024-01-15T10:18:28;19.73;;;9.38;;
28007;SDS011;15333;50.010;20.020;2024-01-15T10:21:31;21.80;;;10.40;;
28007;SDS011;15333;50.010;20.020;2024-01-15T10:24:35;18.27;;;9.43;;
28007;SDS011;15333;50.010;20.020;2024-01-15T10:27:37;20.02;;;10.40;;
28007;SDS011;15333;50.010;20.020;2024-01-15T10:30:38;21.17;;;10.13;;
28007;SDS011;15333;50.010;20.020;2024-01-15T10:33:39;23.73;;;11.48;;
28007;SDS011;15333;50.010;20.020;2024-01-15T10:36:40;17.92;;;9.32;;
28007;SDS011;15333;50.010;20.020;2024-01-15T10:39:41;16.55;;;9.40;;
28007;SDS011;15333;50.010;20.020;2024-01-15T10:42:43;19.08;;;9.43;;
28007;SDS011;15333;50.010;20.020;2024-01-15T10:45:48;20.05;;;9.82;;
28007;SDS011;15333;50.010;20.020;2024-01-15T10:48:51;19.00;;;8.57;;
28007;SDS011;15333;50.010;20.020;2024-01-15T10:51:52;18.88;;;10.45;;
28007;SDS011;15333;50.010;20.020;2024-01-15T10:54:54;18.25;;;9.38;;
28007;SDS011;15333;50.010;20.020;2024-01-15T10:57:56;15.65;;;8.20;;
28007;SDS011;15333;50.010;20.020;2024-01-15T11:00:57;15.68;;;8.20;;
28007;SDS011;15333;50.010;20.020;2024-01-15T11:03:58;15.02;;;8.55;;
28007;SDS011;15333;50.010;20.020;2024-01-15T11:06:59;16.20;;;8.30;;
28007;SDS011;15333;50.010;20.020;2024-01-15T11:10:02;16.58;;;8.25;;
28007;SDS011;15333;50.010;20.020;2024-01-15T11:13:04;15.52;;;8.75;;
28007;SDS011;15333;50.010;20.020;2024-01-15T11:16:06;18.92;;;9.18;;
28007;SDS011;15333;50.010;20.020;2024-01-15T11:19:08;16.50;;;8.13;;
28007;SDS011;15333;50.010;20.020;2024-01-15T11:22:10;16.35;;;7.55;;
28007;SDS011;15333;50.010;20.020;2024-01-15T11:25:34;18.80;;;9.70;;
28007;SDS011;15333;50.010;20.020;2024-01-15T11:28:47;15.10;;;7.82;;
28007;SDS011;15333;50.010;20.020;2024-01-15T11:34:56;12.38;;;7.00;;
28007;SDS011;15333;50.010;20.020;2024-01-15T11:38:04;16.70;;;9.52;;
28007;SDS011;15333;50.010;20.020;2024-01-15T11:41:15;15.88;;;8.35;;
28007;SDS011;15333;50.010;20.020;2024-01-15T11:44:19;16.65;;;7.53;;
28007;SDS011;15333;50.010;20.020;2024-01-15T11:48:04;18.58;;;9.88;;
28007;SDS011;15333;50.010;20.020;2024-01-15T11:51:02;14.35;;;7.28;;
28007;SDS011;15333;50.010;20.020;2024-01-15T11:54:03;15.73;;;7.70;;
28007;SDS011;15333;50.010;20.020;2024-01-15T11:57:15;18.98;;;9.80;;
28007;SDS011;15333;50.010;20.020;2024-01-15T12:00:24;21.33;;;10.02;;
28007;SDS011;15333;50.010;20.020;2024-01-15T12:03:25;17.77;;;9.43;;
28007;SDS011;15333;50.010;20.020;2024-01-15T12:06:27;20.70;;;11.18;;
28007;SDS011;15333;50.010;20.020;2024-01-15T12:09:28;20.70;;;9.60;;
28007;SDS011;15333;50.010;20.020;2024-01-15T12:16:05;17.48;;;8.38;;
28007;SDS011;15333;50.010;20.020;2024-01-15T12:19:06;18.00;;;8.70;;
28007;SDS011;15333;50.010;20.020;2024-01-15T12:22:07;18.33;;;8.23;;
28007;SDS011;15333;50.010;20.020;2024-01-15T12:25:07;16.52;;;8.27;;
28007;SDS011;15333;50.010;20.020;2024-01-15T12:28:08;19.77;;;10.98;;
28007;SDS011;15333;50.010;20.020;2024-01-15T12:31:10;15.63;;;8.60;;
28007;SDS011;15333;50.010;20.020;2024-01-15T12:34:11;19.60;;;8.90;;
28007;SDS011;15333;50.010;20.020;2024-01-15T12:37:12;13.48;;;6.55;;
28007;SDS011;15333;50.010;20.020;2024-01-15T12:40:13;22.70;;;6.95;;
28007;SDS011;15333;50.010;20.020;2024-01-15T12:43:18;17.65;;;7.53;;
28007;SDS011;15333;50.010;20.020;2024-01-15T12:46:19;17.20;;;8.82;;
28007;SDS011;15333;50.010;20.020;2024-01-15T12:49:21;17.88;;;8.57;;
28007;SDS011;15333;50.010;20.020;2024-01-15T12:52:22;15.00;;;8.40;;
28007;SDS011;15333;50.010;20.020;2024-01-15T12:55:22;17.48;;;8.38;;
28007;SDS011;15333;50.010;20.020;2024-01-15T12:58:23;16.63;;;8.60;;
28007;SDS011;15333;50.010;20.020;2024-01-15T13:01:24;17.00;;;8.52;;
28007;SDS011;15333;50.010;20.020;2024-01-15T13:04:26;16.77;;;9.73;;
28007;SDS011;15333;50.010;20.020;2024-01-15T13:07:26;15.20;;;8.02;;
28007;SDS011;15333;50.010;20.020;2024-01-15T13:10:31;16.88;;;7.95;;
28007;SDS011;15333;50.010;20.020;2024-01-15T13:13:32;14.50;;;8.15;;
28007;SDS011;15333;50.010;20.020;2024-01-15T13:16:35;15.27;;;7.45;;
28007;SDS011;15333;50.010;20.020;2024-01-15T13:19:35;12.73;;;7.50;;
28007;SDS011;15333;50.010;20.020;2024-01-15T13:22:36;17.88;;;8.02;;
28007;SDS011;15333;50.010;20.020;2024-01-15T13:25:39;15.57;;;8.63;;
28007;SDS011;15333;50.010;20.020;2024-01-15T13:28:42;14.40;;;8.07;;
28007;SDS011;15333;50.010;20.020;2024-01-15T13:31:43;18.83;;;9.70;;
28007;SDS011;15333;50.010;20.020;2024-01-15T13:34:47;16.75;;;8.20;;
28007;SDS011;15333;50.010;20.020;2024-01-15T13:37:47;16.80;;;8.52;;
28007;SDS011;15333;50.010;20.020;2024-01-15T13:40:48;16.50;;;8.50;;
28007;SDS011;15333;50.010;20.020;2024-01-15T13:43:49;16.25;;;8.35;;
28007;SDS011;15333;50.010;20.020;2024-01-15T13:46:51;14.38;;;8.43;;
28007;SDS011;15333;50.010;20.020;2024-01-15T13:49:52;21.00;;;9.02;;
28007;SDS011;15333;50.010;20.020;2024-01-15T13:52:54;13.88;;;7.78;;
28007;SDS011;15333;50.010;20.020;2024-01-15T13:55:55;14.82;;;7.32;;
28007;SDS011;15333;50.010;20.020;2024-01-15T13:58:55;15.88;;;8.07;;
28007;SDS011;15333;50.010;20.020;2024-01-15T14:01:56;14.30;;;8.27;;
28007;SDS011;15333;50.010;20.020;2024-01-15T14:04:58;14.32;;;8.65;;
28007;SDS011;15333;50.010;20.020;2024-01-15T14:07:58;17.15;;;9.30;;
28007;SDS011;15333;50.010;20.020;2024-01-15T14:10:59;18.15;;;9.25;;
28007;SDS011;15333;50.010;20.020;2024-01-15T14:14:00;16.30;;;8.48;;
28007;SDS011;15333;50.010;20.020;2024-01-15T14:17:01;15.52;;;7.78;;
28007;SDS011;15333;50.010;20.020;2024-01-15T14:20:02;16.13;;;8.20;;
28007;SDS011;15333;50.010;20.020;2024-01-15T14:23:05;16.35;;;8.75;;
28007;SDS011;15333;50.010;20.020;2024-01-15T14:26:06;17.42;;;7.93;;
28007;SDS011;15333;50.010;20.020;2024-01-15T14:29:07;15.07;;;8.80;;
28007;SDS011;15333;50.010;20.020;2024-01-15T14:32:08;16.20;;;8.05;;
28007;SDS011;15333;50.010;20.020;2024-01-15T14:35:09;16.75;;;8.32;;
28007;SDS011;15333;50.010;20.020;2024-01-15T14:38:13;17.00;;;8.25;;
28007;SDS011;15333;50.010;20.020;2024-01-15T14:41:17;17.40;;;9.45;;
28007;SDS011;15333;50.010;20.020;2024-01-15T14:44:17;16.27;;;8.82;;
28007;SDS011;15333;50.010;20.020;2024-01-15T14:47:18;20.75;;;9.05;;
28007;SDS011;15333;50.010;20.020;2024-01-15T14:50:23;17.48;;;8.40;;
28007;SDS011;15333;50.010;20.020;2024-01-15T14:53:24;17.75;;;8.30;;
28007;SDS011;15333;50.010;20.020;2024-01-15T14:56:26;16.17;;;8.70;;
28007;SDS011;15333;50.010;20.020;2024-01-15T14:59:27;14.52;;;7.25;;
28007;SDS011;15333;50.010;20.020;2024-01-15T15:02:30;17.80;;;8.82;;
28007;SDS011;15333;50.010;20.020;2024-01-15T15:05:31;17.45;;;9.07;;
28007;SDS011;15333;50.010;20.020;2024-01-15T15:08:32;16.13;;;8.07;;
28007;SDS011;15333;50.010;20.020;2024-01-15T15:11:33;18.65;;;8.98;;
28007;SDS011;15333;50.010;20.020;2024-01-15T15:14:34;17.13;;;8.57;;
28007;SDS011;15333;50.010;20.020;2024-01-15T15:17:38;16.52;;;8.95;;
28007;SDS011;15333;50.010;20.020;2024-01-15T15:20:39;19.25;;;9.80;;
28007;SDS011;15333;50.010;20.020;2024-01-15T15:23:40;17.27;;;8.70;;
28007;SDS011;15333;50.010;20.020;2024-01-15T15:26:41;18.65;;;8.98;;
28007;SDS011;15333;50.010;20.020;2024-01-15T15:29:42;16.98;;;9.48;;
28007;SDS011;15333;50.010;20.020;2024-01-15T15:32:42;17.33;;;9.30;;
28007;SDS011;15333;50.010;20.020;2024-01-15T15:35:43;18.25;;;9.55;;
28007;SDS011;15333;50.010;20.020;2024-01-15T15:38:44;20.73;;;9.82;;
28007;SDS011;15333;50.010;20.020;2024-01-15T15:41:45;22.02;;;10.10;;
28007;SDS011;15333;50.010;20.020;2024-01-15T15:44:46;19.38;;;9.48;;
28007;SDS011;15333;50.010;20.020;2024-01-15T15:47:48;19.40;;;9.63;;
28007;SDS011;15333;50.010;20.020;2024-01-15T15:50:49;20.30;;;9.40;;
28007;SDS011;15333;50.010;20.020;2024-01-15T15:53:51;15.95;;;8.50;;
28007;SDS011;15333;50.010;20.020;2024-01-15T15:56:52;19.15;;;9.05;;
28007;SDS011;15333;50.010;20.020;2024-01-15T15:59:53;20.20;;;10.48;;
28007;SDS011;15333;50.010;20.020;2024-01-15T16:02:57;17.15;;;9.15;;
28007;SDS011;15333;50.010;20.020;2024-01-15T16:05:59;18.77;;;9.52;;
28007;SDS011;15333;50.010;20.020;2024-01-15T16:09:00;18.90;;;10.73;;
28007;SDS011;15333;50.010;20.020;2024-01-15T16:12:01;19.65;;;10.50;;
28007;SDS011;15333;50.010;20.020;2024-01-15T16:15:03;20.27;;;10.07;;
28007;SDS011;15333;50.010;20.020;2024-01-15T16:18:21;18.52;;;10.20;;
28007;SDS011;15333;50.010;20.020;2024-01-15T16:21:22;20.00;;;10.18;;
28007;SDS011;15333;50.010;20.020;2024-01-15T16:24:23;19.15;;;10.27;;
28007;SDS011;15333;50.010;20.020;2024-01-15T16:27:25;24.88;;;10.23;;
28007;SDS011;15333;50.010;20.020;2024-01-15T16:30:26;22.10;;;11.57;;
28007;SDS011;15333;50.010;20.020;2024-01-15T16:33:27;19.75;;;10.30;;
28007;SDS011;15333;50.010;20.020;2024-01-15T16:36:28;19.00;;;10.60;;
28007;SDS011;15333;50.010;20.020;2024-01-15T16:39:29;18.50;;;10.15;;
28007;SDS011;15333;50.010;20.020;2024-01-15T16:42:30;20.13;;;9.18;;
28007;SDS011;15333;50.010;20.020;2024-01-15T16:45:30;19.58;;;10.25;;
28007;SDS011;15333;50.010;20.020;2024-01-15T16:48:31;15.55;;;7.57;;
28007;SDS011;15333;50.010;20.020;2024-01-15T16:51:32;20.08;;;10.82;;
28007;SDS011;15333;50.010;20.020;2024-01-15T16:54:34;21.88;;;11.40;;
28007;SDS011;15333;50.010;20.020;2024-01-15T16:57:35;20.50;;;10.35;;
28007;SDS011;15333;50.010;20.020;2024-01-15T17:00:36;21.00;;;10.25;;
28007;SDS011;15333;50.010;20.020;2024-01-15T17:03:37;19.33;;;9.93;;
28007;SDS011;15333;50.010;20.020;2024-01-15T17:06:38;16.38;;;9.70;;
28007;SDS011;15333;50.010;20.020;2024-01-15T17:09:39;21.15;;;9.50;;
28007;SDS011;15333;50.010;20.020;2024-01-15T17:12:40;16.42;;;9.02;;
28007;SDS011;15333;50.010;20.020;2024-01-15T17:15:40;18.52;;;10.05;;
28007;SDS011;15333;50.010;20.020;2024-01-15T17:18:43;20.13;;;9.38;;
28007;SDS011;15333;50.010;20.020;2024-01-15T17:21:44;17.20;;;9.60;;
28007;SDS011;15333;50.010;20.020;2024-01-15T17:24:46;17.48;;;8.07;;
28007;SDS011;15333;50.010;20.020;2024-01-15T17:27:47;18.00;;;9.27;;
28007;SDS011;15333;50.010;20.020;2024-01-15T17:30:48;16.27;;;9.45;;
28007;SDS011;15333;50.010;20.020;2024-01-15T17:33:49;21.83;;;10.63;;
28007;SDS011;15333;50.010;20.020;2024-01-15T17:36:50;18.70;;;9.98;;
28007;SDS011;15333;50.010;20.020;2024-01-15T17:39:51;22.05;;;10.35;;
28007;SDS011;15333;50.010;20.020;2024-01-15T17:42:53;21.60;;;9.63;;
28007;SDS011;15333;50.010;20.020;2024-01-15T17:45:53;17.25;;;9.90;;
28007;SDS011;15333;50.010;20.020;2024-01-15T17:48:56;18.17;;;9.60;;
28007;SDS011;15333;50.010;20.020;2024-01-15T17:52:03;18.58;;;9.98;;
28007;SDS011;15333;50.010;20.020;2024-01-15T17:55:04;21.50;;;9.20;;
28007;SDS011;15333;50.010;20.020;2024-01-15T17:58:05;17.35;;;9.23;;
28007;SDS011;15333;50.010;20.020;2024-01-15T18:01:06;19.75;;;10.65;;
28007;SDS011;15333;50.010;20.020;2024-01-15T18:04:07;18.58;;;11.27;;
28007;SDS011;15333;50.010;20.020;2024-01-15T18:07:09;18.95;;;9.55;;
28007;SDS011;15333;50.010;20.020;2024-01-15T18:10:10;20.08;;;10.63;;
28007;SDS011;15333;50.010;20.020;2024-01-15T18:13:11;22.20;;;11.10;;
28007;SDS011;15333;50.010;20.020;2024-01-15T18:16:12;21.50;;;10.05;;
28007;SDS011;15333;50.010;20.020;2024-01-15T18:19:13;18.83;;;10.65;;
28007;SDS011;15333;50.010;20.020;2024-01-15T18:22:14;21.15;;;11.70;;
28007;SDS011;15333;50.010;20.020;2024-01-15T18:25:15;21.70;;;11.55;;
28007;SDS011;15333;50.010;20.020;2024-01-15T18:28:16;21.70;;;12.27;;
28007;SDS011;15333;50.010;20.020;2024-01-15T18:31:17;19.98;;;10.88;;
28007;SDS011;15333;50.010;20.020;2024-01-15T18:34:18;23.52;;;13.13;;
28007;SDS011;15333;50.010;20.020;2024-01-15T18:37:19;24.55;;;13.88;;
28007;SDS011;15333;50.010;20.020;2024-01-15T18:40:20;27.70;;;13.50;;
28007;SDS011;15333;50.010;20.020;2024-01-15T18:43:22;26.20;;;13.85;;
28007;SDS011;15333;50.010;20.020;2024-01-15T18:46:24;28.52;;;15.23;;
28007;SDS011;15333;50.010;20.020;2024-01-15T18:49:25;25.55;;;13.60;;
28007;SDS011;15333;50.010;20.020;2024-01-15T18:52:26;30.02;;;15.68;;
28007;SDS011;15333;50.010;20.020;2024-01-15T18:55:27;23.55;;;13.60;;
28007;SDS011;15333;50.010;20.020;2024-01-15T18:58:27;28.50;;;14.40;;
28007;SDS011;15333;50.010;20.020;2024-01-15T19:01:29;26.15;;;14.52;;
28007;SDS011;15333;50.010;20.020;2024-01-15T19:04:31;25.25;;;14.10;;
28007;SDS011;15333;50.010;20.020;2024-01-15T19:07:32;26.42;;;13.32;;
28007;SDS011;15333;50.010;20.020;2024-01-15T19:10:33;23.48;;;13.65;;
28007;SDS011;15333;50.010;20.020;2024-01-15T19:13:35;28.38;;;14.57;;
28007;SDS011;15333;50.010;20.020;2024-01-15T19:16:35;26.63;;;14.13;;
28007;SDS011;15333;50.010;20.020;2024-01-15T19:19:37;26.65;;;14.00;;
28007;SDS011;15333;50.010;20.020;2024-01-15T19:22:37;18.17;;;10.23;;
28007;SDS011;15333;50.010;20.020;2024-01-15T19:25:38;29.17;;;13.73;;
28007;SDS011;15333;50.010;20.020;2024-01-15T19:28:39;26.45;;;14.32;;
28007;SDS011;15333;50.010;20.020;2024-01-15T19:31:40;23.60;;;13.73;;
28007;SDS011;15333;50.010;20.020;2024-01-15T19:34:41;24.15;;;13.32;;
28007;SDS011;15333;50.010;20.020;2024-01-15T19:37:42;24.33;;;12.70;;
28007;SDS011;15333;50.010;20.020;2024-01-15T19:40:43;19.88;;;11.18;;
28007;SDS011;15333;50.010;20.020;2024-01-15T19:43:45;23.75;;;13.23;;
28007;SDS011;15333;50.010;20.020;2024-01-15T19:46:46;20.70;;;11.00;;
28007;SDS011;15333;50.010;20.020;2024-01-15T19:49:47;26.73;;;13.65;;
28007;SDS011;15333;50.010;20.020;2024-01-15T19:52:48;28.40;;;13.95;;
28007;SDS011;15333;50.010;20.020;2024-01-15T19:55:49;27.52;;;15.80;;
28007;SDS011;15333;50.010;20.020;2024-01-15T19:58:50;23.83;;;14.40;;
28007;SDS011;15333;50.010;20.020;2024-01-15T20:01:51;23.55;;;12.70;;
28007;SDS011;15333;50.010;20.020;2024-01-15T20:04:51;26.52;;;13.43;;
28007;SDS011;15333;50.010;20.020;2024-01-15T20:07:53;23.50;;;11.27;;
28007;SDS011;15333;50.010;20.020;2024-01-15T20:10:53;24.08;;;13.18;;
28007;SDS011;15333;50.010;20.020;2024-01-15T20:13:56;25.40;;;14.38;;
28007;SDS011;15333;50.010;20.020;2024-01-15T20:16:57;24.67;;;13.30;;
28007;SDS011;15333;50.010;20.020;2024-01-15T20:20:05;26.40;;;13.40;;
28007;SDS011;15333;50.010;20.020;2024-01-15T20:23:10;23.98;;;14.20;;
28007;SDS011;15333;50.010;20.020;2024-01-15T20:26:11;25.75;;;14.05;;
28007;SDS011;15333;50.010;20.020;2024-01-15T20:29:12;25.23;;;12.55;;
28007;SDS011;15333;50.010;20.020;2024-01-15T20:32:13;25.98;;;14.05;;
28007;SDS011;15333;50.010;20.020;2024-01-15T20:35:16;24.85;;;13.13;;
28007;SDS011;15333;50.010;20.020;2024-01-15T20:38:17;25.65;;;12.93;;
28007;SDS011;15333;50.010;20.020;2024-01-15T20:41:17;21.58;;;13.13;;
28007;SDS011;15333;50.010;20.020;2024-01-15T20:44:19;25.40;;;13.32;;
28007;SDS011;15333;50.010;20.020;2024-01-15T20:47:21;22.63;;;12.57;;
28007;SDS011;15333;50.010;20.020;2024-01-15T20:50:22;24.15;;;12.77;;
28007;SDS011;15333;50.010;20.020;2024-01-15T20:53:23;23.65;;;12.38;;
28007;SDS011;15333;50.010;20.020;2024-01-15T20:56:24;20.25;;;10.82;;
28007;SDS011;15333;50.010;20.020;2024-01-15T20:59:25;17.23;;;9.50;;
28007;SDS011;15333;50.010;20.020;2024-01-15T21:02:26;24.23;;;10.43;;
28007;SDS011;15333;50.010;20.020;2024-01-15T21:05:27;16.38;;;9.18;;
28007;SDS011;15333;50.010;20.020;2024-01-15T21:08:30;17.65;;;9.68;;
28007;SDS011;15333;50.010;20.020;2024-01-15T21:11:31;15.23;;;8.50;;
28007;SDS011;15333;50.010;20.020;2024-01-15T21:14:32;13.48;;;8.30;;